Time;durP1;ratioP1;P1;durP2;ratioP2;P2;SDS_P1;SDS_P2;PMS_P1;PMS_P2;Temp;Humidity;BMP_temperature;BMP_pressure;BME280_temperature;BME280_humidity;BME280_pressure;Samples;Min_cycle;Max_cycle;Signal;HPM_P1;HPM_P2
2021/10/30 00:00:14;;;;;;;60.22;36.35;;;11.20;99.90;;;;;;5014332;28;20038;-74
2021/10/30 00:02:40;;;;;;;54.35;35.17;;;11.10;99.90;;;;;;5014790;28;20038;-76
2021/10/30 00:05:09;;;;;;;57.33;35.97;;;11.10;99.90;;;;;;5022683;28;20038;-76
2021/10/30 00:07:35;;;;;;;57.78;34.38;;;11.10;99.90;;;;;;5034173;28;20504;-75
2021/10/30 00:10:02;;;;;;;56.53;36.70;;;11.10;99.90;;;;;;5034442;28;20034;-76
2021/10/30 00:12:28;;;;;;;52.03;32.95;;;11.10;99.90;;;;;;5034254;28;20471;-76
2021/10/30 00:14:53;;;;;;;57.10;35.40;;;11.10;99.90;;;;;;5033951;28;20034;-78
2021/10/30 00:17:19;;;;;;;54.90;33.95;;;11.00;99.90;;;;;;5033856;28;20494;-78
2021/10/30 00:19:45;;;;;;;52.25;35.17;;;11.00;99.90;;;;;;5034265;28;20033;-77
2021/10/30 00:22:11;;;;;;;51.72;33.50;;;11.00;99.90;;;;;;5033692;28;20029;-77
2021/10/30 00:24:36;;;;;;;59.72;33.65;;;11.00;99.90;;;;;;4999978;28;20533;-78
2021/10/30 00:27:04;;;;;;;53.88;34.20;;;10.90;99.90;;;;;;4996363;28;20157;-74
2021/10/30 00:29:30;;;;;;;56.05;33.17;;;11.00;99.90;;;;;;5013935;28;20022;-76
2021/10/30 00:31:56;;;;;;;53.80;33.75;;;11.00;99.90;;;;;;5012463;28;20044;-77
2021/10/30 00:34:23;;;;;;;52.13;31.88;;;11.00;99.90;;;;;;5014253;28;20390;-77
2021/10/30 00:36:52;;;;;;;53.15;33.58;;;11.00;99.90;;;;;;5014100;28;20057;-76
2021/10/30 00:39:18;;;;;;;51.13;32.28;;;10.90;99.90;;;;;;5014679;28;20034;-76
2021/10/30 00:41:52;;;;;;;53.05;32.63;;;10.90;99.90;;;;;;5014368;28;20038;-77
2021/10/30 00:44:18;;;;;;;54.95;33.33;;;10.90;99.90;;;;;;5012597;28;20045;-76
2021/10/30 00:46:48;;;;;;;50.47;32.63;;;10.90;99.90;;;;;;5012004;28;20029;-78
2021/10/30 00:49:14;;;;;;;52.17;32.85;;;10.80;99.90;;;;;;5012436;28;20161;-78
2021/10/30 00:51:42;;;;;;;50.85;33.63;;;10.90;99.90;;;;;;5012009;28;20030;-78
2021/10/30 00:54:10;;;;;;;56.60;34.67;;;10.90;99.90;;;;;;5011580;28;20491;-75
2021/10/30 00:56:37;;;;;;;51.13;34.13;;;10.90;99.90;;;;;;5011960;28;20030;-77
2021/10/30 00:59:05;;;;;;;53.67;34.25;;;10.80;99.90;;;;;;5017757;28;20036;-75
2021/10/30 01:01:31;;;;;;;54.50;32.22;;;10.80;99.90;;;;;;5012385;28;20029;-77
2021/10/30 01:03:58;;;;;;;50.47;31.95;;;10.80;99.90;;;;;;5033897;28;20437;-76
2021/10/30 01:06:24;;;;;;;51.75;31.08;;;10.80;99.90;;;;;;5033337;28;20041;-74
2021/10/30 01:08:52;;;;;;;47.60;31.55;;;10.80;99.90;;;;;;5033462;28;20021;-75
2021/10/30 01:11:17;;;;;;;56.25;32.33;;;10.90;99.90;;;;;;5033116;28;20034;-77
2021/10/30 01:13:43;;;;;;;49.83;31.90;;;10.80;99.90;;;;;;5032476;28;20059;-77
2021/10/30 01:16:10;;;;;;;52.05;31.45;;;10.90;99.90;;;;;;5033132;28;20030;-74
2021/10/30 01:18:36;;;;;;;56.28;33.28;;;10.90;99.90;;;;;;5020922;28;20029;-78
2021/10/30 01:21:02;;;;;;;46.00;29.55;;;10.80;99.90;;;;;;5022550;28;20032;-78
2021/10/30 01:23:28;;;;;;;48.70;28.90;;;10.80;99.90;;;;;;5029005;28;20087;-77
2021/10/30 01:25:59;;;;;;;51.97;30.02;;;10.80;99.90;;;;;;5025916;28;20073;-78
2021/10/30 01:28:27;;;;;;;47.17;29.92;;;10.90;99.90;;;;;;5027010;28;20022;-77
2021/10/30 01:30:53;;;;;;;51.22;29.58;;;10.80;99.90;;;;;;5032811;28;20477;-77
2021/10/30 01:33:19;;;;;;;51.92;29.33;;;10.80;99.90;;;;;;5027174;28;20038;-78
2021/10/30 01:35:45;;;;;;;50.72;30.55;;;10.80;99.90;;;;;;5013180;28;20104;-76
2021/10/30 01:38:11;;;;;;;43.92;27.95;;;10.90;99.90;;;;;;5013001;28;20057;-75
2021/10/30 01:40:50;;;;;;;41.80;27.73;;;10.90;99.90;;;;;;5023379;28;20033;-75
2021/10/30 01:43:18;;;;;;;45.20;27.75;;;10.80;99.90;;;;;;5026886;28;20101;-77
2021/10/30 01:45:45;;;;;;;48.28;27.98;;;10.90;99.90;;;;;;5025364;28;20053;-78
2021/10/30 01:48:11;;;;;;;43.00;27.23;;;10.90;99.90;;;;;;5026387;28;20035;-78
2021/10/30 01:50:40;;;;;;;46.95;29.02;;;10.90;99.90;;;;;;5032605;28;20037;-78
2021/10/30 01:53:07;;;;;;;45.67;28.00;;;10.90;99.90;;;;;;5032240;28;20048;-78
2021/10/30 01:55:36;;;;;;;43.78;27.58;;;10.90;99.90;;;;;;5027435;28;20044;-77
2021/10/30 01:58:02;;;;;;;43.53;26.17;;;10.90;99.90;;;;;;5013054;28;20453;-78
2021/10/30 02:00:28;;;;;;;44.00;27.42;;;11.00;99.90;;;;;;5012318;28;20045;-78
2021/10/30 02:02:54;;;;;;;44.20;27.58;;;11.00;99.90;;;;;;5012824;28;20033;-78
2021/10/30 02:05:20;;;;;;;46.42;28.40;;;11.10;99.90;;;;;;5012404;28;20423;-74
2021/10/30 02:07:46;;;;;;;41.08;26.20;;;11.10;99.90;;;;;;5012690;28;20112;-76
2021/10/30 02:10:13;;;;;;;43.63;26.83;;;11.00;99.90;;;;;;5012562;28;20037;-76
2021/10/30 02:12:39;;;;;;;47.72;27.50;;;11.00;99.90;;;;;;5012474;28;20018;-75
2021/10/30 02:15:06;;;;;;;44.97;26.45;;;11.00;99.90;;;;;;5029683;28;20045;-74
2021/10/30 02:17:33;;;;;;;39.88;25.92;;;11.00;99.90;;;;;;5032186;28;20071;-77
2021/10/30 02:19:58;;;;;;;44.28;26.63;;;11.00;99.90;;;;;;5031754;28;20037;-76
2021/10/30 02:22:24;;;;;;;39.40;27.27;;;11.00;99.90;;;;;;5019398;28;20120;-76
2021/10/30 02:24:53;;;;;;;41.55;27.17;;;11.00;99.90;;;;;;5015785;28;20033;-77
2021/10/30 02:27:19;;;;;;;45.63;27.98;;;11.00;99.90;;;;;;5003283;28;20037;-74
2021/10/30 02:29:44;;;;;;;44.97;28.83;;;11.00;99.90;;;;;;5028569;28;20030;-75
2021/10/30 02:32:10;;;;;;;44.72;28.90;;;11.00;99.90;;;;;;5035486;28;20029;-77
2021/10/30 02:34:36;;;;;;;42.45;26.65;;;11.00;99.90;;;;;;5036376;28;20127;-76
2021/10/30 02:37:02;;;;;;;45.33;28.42;;;10.90;99.90;;;;;;5036002;28;20467;-75
2021/10/30 02:39:28;;;;;;;41.80;27.40;;;10.90;99.90;;;;;;5036355;28;20057;-75
2021/10/30 02:41:53;;;;;;;42.97;26.75;;;10.90;99.90;;;;;;5018315;28;20116;-77
2021/10/30 02:44:19;;;;;;;46.42;27.35;;;10.80;99.90;;;;;;5022537;28;20386;-77
2021/10/30 02:46:45;;;;;;;47.10;26.58;;;10.80;99.90;;;;;;5031039;28;20101;-76
2021/10/30 02:49:10;;;;;;;47.13;27.95;;;10.80;99.90;;;;;;5031068;28;20034;-78
2021/10/30 02:51:36;;;;;;;41.80;26.40;;;10.80;99.90;;;;;;5024952;28;20041;-75
2021/10/30 02:54:02;;;;;;;48.40;27.98;;;10.80;99.90;;;;;;5035843;28;20056;-76
2021/10/30 02:56:28;;;;;;;41.80;25.95;;;10.80;99.90;;;;;;5035691;28;20049;-74
2021/10/30 02:58:54;;;;;;;42.80;26.55;;;10.80;99.90;;;;;;5035608;28;20065;-75
2021/10/30 03:01:20;;;;;;;45.90;26.73;;;10.80;99.90;;;;;;5030101;28;20386;-75
2021/10/30 03:03:46;;;;;;;50.75;28.08;;;10.70;99.90;;;;;;5018088;28;20030;-77
2021/10/30 03:06:11;;;;;;;49.28;26.80;;;10.70;99.90;;;;;;5015895;28;20117;-75
2021/10/30 03:08:37;;;;;;;43.08;27.15;;;10.70;99.90;;;;;;5025308;28;20053;-75
2021/10/30 03:11:03;;;;;;;40.88;27.40;;;10.70;99.90;;;;;;5035533;28;20034;-77
2021/10/30 03:13:29;;;;;;;42.92;27.08;;;10.70;99.90;;;;;;5035541;28;20037;-77
2021/10/30 03:15:55;;;;;;;45.47;26.30;;;10.70;99.90;;;;;;5035425;28;20116;-73
2021/10/30 03:18:21;;;;;;;44.10;26.98;;;10.80;99.90;;;;;;5035404;28;20034;-74
2021/10/30 03:20:48;;;;;;;42.15;27.02;;;10.70;99.90;;;;;;5024055;28;20096;-76
2021/10/30 03:23:13;;;;;;;40.25;24.83;;;10.70;99.90;;;;;;5032326;28;20052;-78
2021/10/30 03:25:39;;;;;;;38.42;25.83;;;10.70;99.90;;;;;;5017207;28;20046;-77
2021/10/30 03:28:05;;;;;;;43.17;26.35;;;10.70;99.90;;;;;;5034868;28;20037;-74
2021/10/30 03:30:31;;;;;;;44.15;26.08;;;10.70;99.90;;;;;;5035501;28;20112;-75
2021/10/30 03:32:57;;;;;;;39.05;25.40;;;10.70;99.90;;;;;;5001268;28;20033;-76
2021/10/30 03:35:22;;;;;;;45.15;26.25;;;10.70;99.90;;;;;;5020089;28;20029;-78
2021/10/30 03:37:48;;;;;;;43.40;25.73;;;10.70;99.90;;;;;;5023342;28;20045;-76
2021/10/30 03:40:14;;;;;;;40.70;25.83;;;10.70;99.90;;;;;;5032142;28;20025;-78
2021/10/30 03:42:40;;;;;;;41.65;24.70;;;10.70;99.90;;;;;;5034633;28;20026;-77
2021/10/30 03:45:07;;;;;;;39.42;24.75;;;10.70;99.90;;;;;;5034393;28;20049;-75
2021/10/30 03:47:33;;;;;;;37.05;24.40;;;10.70;99.90;;;;;;5034008;28;20104;-77
2021/10/30 03:49:59;;;;;;;41.33;22.58;;;10.70;99.90;;;;;;5024476;28;20121;-76
2021/10/30 03:52:25;;;;;;;42.33;22.52;;;10.70;99.90;;;;;;5030146;28;20086;-76
2021/10/30 03:54:52;;;;;;;38.05;23.73;;;10.70;99.90;;;;;;5034673;28;20045;-76
2021/10/30 03:57:17;;;;;;;38.45;23.05;;;10.70;99.90;;;;;;5034912;28;20072;-77
2021/10/30 03:59:43;;;;;;;38.55;23.52;;;10.70;99.90;;;;;;5028472;28;20030;-77
2021/10/30 04:02:09;;;;;;;37.00;23.50;;;10.70;99.90;;;;;;5026320;28;20045;-75
2021/10/30 04:04:34;;;;;;;35.88;22.10;;;10.70;99.90;;;;;;5034342;28;20022;-75
2021/10/30 04:07:00;;;;;;;35.30;21.60;;;10.70;99.90;;;;;;5034367;28;20072;-76
2021/10/30 04:09:27;;;;;;;38.70;23.30;;;10.70;99.90;;;;;;5034718;28;20064;-77
2021/10/30 04:11:53;;;;;;;41.10;22.15;;;10.80;99.90;;;;;;5034246;28;20128;-77
2021/10/30 04:14:19;;;;;;;38.08;22.85;;;10.80;99.90;;;;;;5034367;28;20021;-74
2021/10/30 04:16:46;;;;;;;34.60;21.30;;;10.90;99.90;;;;;;5034263;28;20036;-74
2021/10/30 04:19:13;;;;;;;33.92;22.17;;;10.90;99.90;;;;;;5034145;28;20044;-76
2021/10/30 04:21:40;;;;;;;41.97;22.67;;;10.90;99.90;;;;;;5029490;28;20030;-75
2021/10/30 04:24:06;;;;;;;33.42;21.52;;;10.90;99.90;;;;;;5024542;28;20045;-76
2021/10/30 04:26:32;;;;;;;34.55;21.20;;;11.00;99.90;;;;;;5033690;28;20033;-75
2021/10/30 04:28:58;;;;;;;35.22;20.60;;;11.00;99.90;;;;;;5007740;28;20033;-72
2021/10/30 04:31:27;;;;;;;32.75;19.75;;;11.00;99.90;;;;;;5028479;28;20128;-73
2021/10/30 04:33:58;;;;;;;29.27;18.38;;;11.10;99.90;;;;;;5027102;28;20056;-74
2021/10/30 04:36:26;;;;;;;31.90;22.35;;;11.10;99.90;;;;;;5027920;28;20520;-76
2021/10/30 04:38:52;;;;;;;32.22;19.92;;;11.10;99.90;;;;;;5006801;28;20024;-75
2021/10/30 04:41:18;;;;;;;27.77;18.10;;;11.10;99.90;;;;;;5033803;28;20030;-74
2021/10/30 04:43:45;;;;;;;31.42;20.38;;;11.10;99.90;;;;;;5019760;28;20099;-72
2021/10/30 04:46:17;;;;;;;33.75;20.45;;;11.00;99.90;;;;;;5033274;28;20095;-74
2021/10/30 04:48:43;;;;;;;37.50;19.63;;;10.90;99.90;;;;;;5021859;28;20030;-74
2021/10/30 04:51:09;;;;;;;32.30;20.23;;;10.90;99.90;;;;;;5010007;28;20057;-75
2021/10/30 04:53:39;;;;;;;27.77;17.38;;;10.80;99.90;;;;;;5013593;28;20113;-73
2021/10/30 04:56:06;;;;;;;29.83;20.00;;;10.80;99.90;;;;;;5012870;28;20018;-75
2021/10/30 04:58:33;;;;;;;28.75;18.80;;;10.80;99.90;;;;;;5013467;28;20030;-77
2021/10/30 05:01:00;;;;;;;28.50;18.50;;;10.80;99.90;;;;;;5013134;28;20406;-74
2021/10/30 05:03:26;;;;;;;26.88;18.90;;;10.90;99.90;;;;;;5002140;28;20022;-75
2021/10/30 05:05:51;;;;;;;33.10;18.17;;;10.80;99.90;;;;;;5013353;28;20050;-74
2021/10/30 05:08:17;;;;;;;33.63;20.35;;;10.80;99.90;;;;;;5004923;28;20030;-74
2021/10/30 05:10:43;;;;;;;29.08;18.23;;;10.80;99.90;;;;;;5012827;28;20241;-73
2021/10/30 05:13:09;;;;;;;33.33;19.55;;;10.80;99.90;;;;;;5013074;28;20534;-74
2021/10/30 05:15:35;;;;;;;28.90;18.63;;;10.80;99.90;;;;;;5013148;28;20040;-75
2021/10/30 05:18:01;;;;;;;32.75;19.92;;;10.70;99.90;;;;;;5013359;28;20092;-75
2021/10/30 05:20:27;;;;;;;30.60;19.38;;;10.80;99.90;;;;;;5012916;28;20026;-75
2021/10/30 05:22:53;;;;;;;28.35;18.35;;;10.70;99.90;;;;;;5013018;28;20088;-75
2021/10/30 05:25:19;;;;;;;28.08;19.13;;;10.70;99.90;;;;;;4994643;28;20438;-73
2021/10/30 05:27:45;;;;;;;30.23;19.20;;;10.70;99.90;;;;;;5012720;28;20474;-74
2021/10/30 05:30:10;;;;;;;28.08;19.08;;;10.70;99.90;;;;;;5013093;28;20030;-73
2021/10/30 05:32:36;;;;;;;35.85;19.13;;;10.70;99.90;;;;;;4995459;28;20076;-75
2021/10/30 05:35:02;;;;;;;33.97;21.10;;;10.70;99.90;;;;;;5012577;28;20034;-75
2021/10/30 05:37:28;;;;;;;30.60;19.38;;;10.70;99.90;;;;;;5012454;28;20485;-76
2021/10/30 05:39:54;;;;;;;33.15;19.27;;;10.70;99.90;;;;;;5012785;28;20185;-74
2021/10/30 05:42:20;;;;;;;32.25;19.63;;;10.70;99.90;;;;;;5012458;28;20502;-75
2021/10/30 05:44:46;;;;;;;28.08;18.75;;;10.70;99.90;;;;;;5012390;28;20380;-74
2021/10/30 05:47:13;;;;;;;29.17;19.02;;;10.70;99.90;;;;;;5013038;28;20033;-76
2021/10/30 05:49:43;;;;;;;32.00;20.27;;;10.70;99.90;;;;;;5032836;28;20115;-73
2021/10/30 05:52:09;;;;;;;34.08;19.95;;;10.70;99.90;;;;;;5032528;28;20363;-76
2021/10/30 05:54:35;;;;;;;33.10;20.70;;;10.70;99.90;;;;;;5014358;28;20032;-75
2021/10/30 05:57:01;;;;;;;30.55;19.70;;;10.70;99.90;;;;;;5014241;28;20065;-76
2021/10/30 05:59:27;;;;;;;35.53;20.25;;;10.70;99.90;;;;;;5031919;28;20083;-75
2021/10/30 06:01:54;;;;;;;39.80;21.02;;;10.70;99.90;;;;;;5014748;28;20096;-76
2021/10/30 06:04:20;;;;;;;33.67;21.52;;;10.70;99.90;;;;;;5018650;28;20026;-72
2021/10/30 06:06:46;;;;;;;29.65;20.00;;;10.70;99.90;;;;;;5032282;28;20068;-76
2021/10/30 06:09:12;;;;;;;34.35;20.13;;;10.80;99.90;;;;;;5032394;28;20022;-76
2021/10/30 06:11:38;;;;;;;40.17;20.60;;;11.10;99.90;;;;;;5002214;28;20100;-73
2021/10/30 06:14:06;;;;;;;39.63;18.67;;;11.50;99.90;;;;;;5012646;28;20030;-75
2021/10/30 06:16:33;;;;;;;34.50;19.02;;;12.00;99.90;;;;;;5012228;28;20076;-75
2021/10/30 06:18:59;;;;;;;29.95;19.55;;;12.40;99.90;;;;;;5012364;28;20054;-76
2021/10/30 06:21:27;;;;;;;33.97;19.05;;;12.80;99.90;;;;;;4994586;28;20076;-74
2021/10/30 06:23:54;;;;;;;31.80;18.48;;;13.10;99.90;;;;;;4996563;28;20066;-76
2021/10/30 06:26:20;;;;;;;34.72;18.90;;;13.60;99.90;;;;;;5011221;28;20041;-75
2021/10/30 06:28:47;;;;;;;28.75;18.00;;;13.90;99.90;;;;;;5012494;28;20105;-76
2021/10/30 06:31:14;;;;;;;31.92;16.52;;;14.30;99.90;;;;;;5011866;28;20038;-76
2021/10/30 06:33:41;;;;;;;24.02;15.95;;;14.80;99.70;;;;;;5012041;28;20014;-76
2021/10/30 06:36:07;;;;;;;20.00;14.75;;;15.30;99.00;;;;;;5012025;28;20026;-76
2021/10/30 06:38:33;;;;;;;25.55;16.13;;;15.80;98.20;;;;;;5011729;28;20058;-76
2021/10/30 06:41:01;;;;;;;32.83;17.83;;;16.30;97.90;;;;;;5012358;28;20097;-75
2021/10/30 06:43:30;;;;;;;27.58;16.42;;;16.60;97.30;;;;;;5025276;28;20381;-77
2021/10/30 06:45:55;;;;;;;31.58;16.33;;;17.00;96.70;;;;;;5012182;28;20034;-73
2021/10/30 06:48:21;;;;;;;27.85;17.00;;;17.20;95.70;;;;;;5022082;28;20022;-75
2021/10/30 06:50:47;;;;;;;35.45;17.02;;;17.10;95.80;;;;;;5015056;28;20061;-76
2021/10/30 06:53:13;;;;;;;26.83;17.10;;;17.20;95.80;;;;;;5011482;28;20030;-78
2021/10/30 06:55:41;;;;;;;27.52;17.33;;;17.40;95.60;;;;;;5012788;28;20053;-75
2021/10/30 06:58:07;;;;;;;30.48;16.90;;;17.50;95.30;;;;;;5032099;28;20025;-73
2021/10/30 07:00:33;;;;;;;23.33;15.95;;;17.70;95.20;;;;;;5031897;28;20044;-76
2021/10/30 07:02:59;;;;;;;30.08;15.88;;;17.80;95.00;;;;;;5026203;28;20077;-72
2021/10/30 07:05:25;;;;;;;27.15;17.13;;;18.00;95.00;;;;;;5011914;28;20081;-76
2021/10/30 07:07:51;;;;;;;45.40;16.73;;;18.20;94.50;;;;;;5011960;28;20026;-74
2021/10/30 07:10:18;;;;;;;24.15;14.27;;;18.10;94.40;;;;;;5020938;28;20140;-72
2021/10/30 07:12:44;;;;;;;19.70;14.35;;;18.30;93.60;;;;;;5019697;28;20537;-73
2021/10/30 07:15:12;;;;;;;26.30;14.25;;;18.50;93.50;;;;;;5015521;28;20125;-76
2021/10/30 07:17:38;;;;;;;26.40;14.75;;;18.50;93.30;;;;;;5018629;28;20080;-75
2021/10/30 07:20:05;;;;;;;28.05;14.43;;;18.60;93.30;;;;;;5000753;28;20064;-75
2021/10/30 07:22:31;;;;;;;22.58;14.73;;;18.70;93.60;;;;;;5027168;28;20034;-76
2021/10/30 07:24:58;;;;;;;28.20;14.38;;;18.90;93.40;;;;;;5028382;28;20391;-76
2021/10/30 07:27:23;;;;;;;23.98;14.93;;;18.80;93.60;;;;;;5024072;28;20022;-74
2021/10/30 07:29:51;;;;;;;25.90;15.13;;;18.90;93.50;;;;;;5033238;28;20029;-76
2021/10/30 07:32:18;;;;;;;21.13;15.18;;;18.90;93.30;;;;;;5031332;28;20064;-75
2021/10/30 07:34:44;;;;;;;20.88;13.38;;;18.80;93.30;;;;;;5020290;28;20532;-75
2021/10/30 07:37:10;;;;;;;22.63;14.65;;;18.70;93.50;;;;;;5025926;28;20507;-74
2021/10/30 07:39:36;;;;;;;26.63;14.27;;;18.60;93.60;;;;;;5031210;28;20037;-75
2021/10/30 07:42:04;;;;;;;24.45;13.18;;;18.60;93.80;;;;;;5023550;28;20094;-76
2021/10/30 07:44:29;;;;;;;25.48;13.80;;;18.70;93.50;;;;;;5033394;28;20092;-75
2021/10/30 07:46:55;;;;;;;26.95;14.18;;;18.80;93.70;;;;;;5020283;28;20037;-73
2021/10/30 07:49:21;;;;;;;20.05;13.20;;;19.00;93.40;;;;;;5030098;28;20038;-75
2021/10/30 07:51:47;;;;;;;30.05;15.43;;;19.10;93.60;;;;;;5018685;28;20038;-76
2021/10/30 07:54:13;;;;;;;28.98;17.23;;;19.10;93.20;;;;;;5014979;28;20034;-74
2021/10/30 07:56:38;;;;;;;28.15;14.57;;;19.10;93.50;;;;;;5015091;28;20042;-76
2021/10/30 07:59:04;;;;;;;20.40;14.20;;;19.20;93.00;;;;;;5014522;28;20040;-76
2021/10/30 08:01:30;;;;;;;22.95;15.07;;;19.20;92.90;;;;;;5021074;28;20038;-74
2021/10/30 08:03:55;;;;;;;22.80;13.60;;;19.30;93.20;;;;;;5036547;28;20044;-74
2021/10/30 08:06:21;;;;;;;20.00;13.30;;;19.40;92.70;;;;;;5034187;28;20026;-74
2021/10/30 08:08:47;;;;;;;22.67;13.65;;;19.30;92.70;;;;;;5011378;28;20549;-73
2021/10/30 08:11:12;;;;;;;20.45;13.20;;;19.30;92.90;;;;;;5030788;28;20040;-74
2021/10/30 08:13:38;;;;;;;18.25;13.38;;;19.50;93.00;;;;;;5026939;28;20057;-74
2021/10/30 08:16:04;;;;;;;25.20;13.68;;;19.70;92.40;;;;;;5013894;28;20022;-75
2021/10/30 08:18:30;;;;;;;19.50;12.63;;;19.90;92.20;;;;;;5031921;28;20038;-73
2021/10/30 08:20:55;;;;;;;20.23;13.25;;;20.10;91.80;;;;;;5032558;28;20036;-75
2021/10/30 08:23:21;;;;;;;19.75;12.70;;;20.60;91.60;;;;;;5028125;28;20465;-74
2021/10/30 08:25:47;;;;;;;21.80;12.15;;;21.20;90.90;;;;;;5033443;28;20046;-74
2021/10/30 08:28:12;;;;;;;25.70;12.25;;;21.50;89.00;;;;;;5024537;28;20041;-74
2021/10/30 08:30:38;;;;;;;19.65;12.75;;;22.20;89.50;;;;;;5025192;28;20065;-74
2021/10/30 08:33:04;;;;;;;15.57;11.38;;;23.20;86.70;;;;;;5036708;28;20030;-74
2021/10/30 08:35:29;;;;;;;21.08;12.05;;;24.30;83.40;;;;;;5014273;28;20052;-73
2021/10/30 08:37:55;;;;;;;13.85;10.90;;;25.20;80.00;;;;;;5006603;28;20046;-74
2021/10/30 08:40:21;;;;;;;14.75;10.55;;;26.10;78.60;;;;;;5021942;28;20034;-74
2021/10/30 08:42:48;;;;;;;16.17;9.75;;;27.00;75.90;;;;;;5023715;28;20029;-75
2021/10/30 08:45:15;;;;;;;13.45;9.35;;;27.70;73.20;;;;;;5016760;28;20045;-76
2021/10/30 08:47:47;;;;;;;14.93;10.18;;;28.30;71.60;;;;;;5017862;28;20029;-75
2021/10/30 08:50:15;;;;;;;14.88;9.98;;;28.80;70.20;;;;;;4996650;28;20109;-75
2021/10/30 08:52:41;;;;;;;14.43;9.65;;;29.30;68.50;;;;;;5016254;28;20014;-75
2021/10/30 08:55:08;;;;;;;12.48;8.88;;;29.70;68.00;;;;;;5016484;28;20029;-75
2021/10/30 08:57:34;;;;;;;24.48;10.43;;;30.30;65.30;;;;;;5015924;28;20038;-76
2021/10/30 09:00:24;;;;;;;23.58;9.50;;;30.50;65.10;;;;;;5023514;28;20036;-74
2021/10/30 09:02:57;;;;;;;28.45;9.70;;;31.00;64.40;;;;;;5025040;28;20030;-74
2021/10/30 09:05:24;;;;;;;14.73;9.05;;;31.80;62.70;;;;;;5026677;28;20041;-73
2021/10/30 09:07:55;;;;;;;19.67;9.38;;;32.20;61.90;;;;;;5025659;28;20437;-73
2021/10/30 09:10:28;;;;;;;13.23;9.20;;;32.60;60.60;;;;;;5029010;28;20506;-73
2021/10/30 09:12:56;;;;;;;12.75;8.20;;;33.20;59.70;;;;;;5001774;28;20506;-73
2021/10/30 09:15:30;;;;;;;19.23;8.77;;;33.30;58.60;;;;;;5025254;28;20029;-73
2021/10/30 09:17:56;;;;;;;18.17;9.00;;;33.60;57.90;;;;;;5025608;28;20091;-73
2021/10/30 09:20:30;;;;;;;21.08;9.65;;;33.90;58.70;;;;;;5022626;28;20045;-75
2021/10/30 09:22:56;;;;;;;25.17;10.50;;;34.50;58.70;;;;;;5026529;28;20061;-76
2021/10/30 09:25:21;;;;;;;16.02;8.93;;;34.50;58.10;;;;;;5024314;28;20502;-75
2021/10/30 09:27:54;;;;;;;15.40;9.27;;;34.70;57.50;;;;;;5025208;28;20504;-75
2021/10/30 09:30:27;;;;;;;21.17;9.45;;;34.80;56.90;;;;;;5003414;28;20375;-74
2021/10/30 09:33:04;;;;;;;25.45;9.45;;;34.90;56.60;;;;;;5019531;28;20411;-76
2021/10/30 09:35:33;;;;;;;13.27;8.77;;;35.30;55.90;;;;;;5006698;28;20041;-74
2021/10/30 09:37:59;;;;;;;18.77;8.60;;;36.00;54.90;;;;;;5011475;28;20034;-73
2021/10/30 09:40:30;;;;;;;19.15;8.40;;;36.50;54.00;;;;;;5016071;28;20046;-73
2021/10/30 09:43:14;;;;;;;20.15;9.50;;;36.80;53.50;;;;;;5018727;28;20108;-73
2021/10/30 09:45:46;;;;;;;11.30;7.68;;;37.00;52.90;;;;;;4996916;28;20547;-72
2021/10/30 09:48:24;;;;;;;11.13;7.80;;;37.20;52.10;;;;;;5029045;28;20493;-72
2021/10/30 09:50:55;;;;;;;16.63;9.27;;;37.40;52.10;;;;;;5025729;28;20037;-72
2021/10/30 09:53:30;;;;;;;19.85;10.93;;;37.90;51.70;;;;;;5023774;28;20084;-72
2021/10/30 09:56:05;;;;;;;18.70;8.43;;;38.10;51.20;;;;;;5024587;28;20038;-71
2021/10/30 09:58:33;;;;;;;13.07;8.77;;;38.60;51.60;;;;;;5025971;28;20041;-72
2021/10/30 10:01:02;;;;;;;17.50;9.02;;;39.20;50.20;;;;;;5020582;28;20480;-73
2021/10/30 10:03:29;;;;;;;17.15;8.18;;;39.60;50.20;;;;;;5021079;28;20030;-73
2021/10/30 10:05:56;;;;;;;24.30;8.73;;;39.80;49.20;;;;;;5023737;28;20514;-74
2021/10/30 10:08:24;;;;;;;15.82;9.45;;;40.10;48.70;;;;;;5025985;28;20100;-73
2021/10/30 10:10:52;;;;;;;12.15;8.10;;;40.20;48.70;;;;;;5022481;28;20500;-73
2021/10/30 10:13:19;;;;;;;17.73;8.30;;;39.80;48.70;;;;;;5016559;28;20022;-73
2021/10/30 10:15:46;;;;;;;13.88;8.85;;;39.60;49.40;;;;;;5018147;28;20048;-74
2021/10/30 10:18:11;;;;;;;15.68;9.02;;;39.40;50.00;;;;;;5020496;28;20037;-75
2021/10/30 10:20:37;;;;;;;14.25;8.65;;;39.30;50.10;;;;;;5019495;28;20494;-73
2021/10/30 10:23:03;;;;;;;18.83;9.88;;;39.20;50.50;;;;;;5010722;28;20076;-73
2021/10/30 10:25:31;;;;;;;18.40;11.27;;;38.90;50.90;;;;;;5024151;28;20657;-73
2021/10/30 10:28:27;;;;;;;14.73;11.50;;;38.20;51.50;;;;;;5023875;28;20026;-72
2021/10/30 10:30:58;;;;;;;14.65;11.18;;;36.70;52.80;;;;;;5013957;28;20034;-72
2021/10/30 10:33:25;;;;;;;16.58;10.93;;;34.70;54.70;;;;;;5016756;28;20038;-73
2021/10/30 10:36:13;;;;;;;18.02;12.35;;;32.70;56.80;;;;;;5026459;28;20529;-72
2021/10/30 10:39:05;;;;;;;21.92;12.35;;;30.90;59.80;;;;;;5021165;28;20364;-71
2021/10/30 10:41:37;;;;;;;14.00;12.23;;;29.40;62.90;;;;;;5008963;28;20104;-72
2021/10/30 10:44:07;;;;;;;20.10;13.35;;;28.40;65.90;;;;;;5012237;28;20026;-72
2021/10/30 10:46:37;;;;;;;22.88;14.40;;;27.60;67.90;;;;;;4996823;28;20042;-72
2021/10/30 10:49:24;;;;;;;20.75;14.60;;;26.90;69.90;;;;;;5033823;28;20026;-72
2021/10/30 10:52:07;;;;;;;18.75;15.00;;;26.20;72.20;;;;;;4998679;28;20038;-72
2021/10/30 10:54:54;;;;;;;22.00;15.88;;;25.60;73.90;;;;;;5016770;28;20224;-73
2021/10/30 10:57:47;;;;;;;23.17;17.02;;;24.90;76.00;;;;;;5016062;28;20026;-73
2021/10/30 11:00:19;;;;;;;22.83;16.67;;;24.30;78.50;;;;;;5010964;28;20054;-72
2021/10/30 11:02:48;;;;;;;26.48;17.33;;;23.50;80.60;;;;;;4998351;28;20434;-72
2021/10/30 11:05:14;;;;;;;26.25;18.10;;;23.00;83.00;;;;;;5015158;28;20049;-72
2021/10/30 11:08:01;;;;;;;26.80;17.42;;;22.70;84.50;;;;;;4993813;28;20138;-73
2021/10/30 11:10:30;;;;;;;22.67;17.63;;;22.60;85.40;;;;;;5008968;28;20076;-72
2021/10/30 11:13:01;;;;;;;28.10;19.38;;;22.50;86.40;;;;;;5024749;28;20018;-72
2021/10/30 11:15:52;;;;;;;29.38;18.08;;;22.50;87.20;;;;;;5020729;28;20101;-72
2021/10/30 11:18:30;;;;;;;28.60;18.95;;;22.40;87.20;;;;;;5030747;28;20036;-72
2021/10/30 11:21:11;;;;;;;33.28;20.05;;;22.20;89.10;;;;;;5023680;28;20069;-71
2021/10/30 11:23:43;;;;;;;27.75;19.38;;;22.00;90.40;;;;;;4997146;28;20050;-76
2021/10/30 11:26:29;;;;;;;26.20;18.90;;;21.90;90.80;;;;;;5014595;28;20030;-74
2021/10/30 11:29:07;;;;;;;32.78;19.23;;;21.80;91.60;;;;;;5013632;28;20445;-70
2021/10/30 11:31:33;;;;;;;26.85;19.48;;;21.60;91.80;;;;;;5014760;28;20427;-71
2021/10/30 11:34:01;;;;;;;31.48;18.25;;;21.50;92.30;;;;;;5014360;28;20033;-71
2021/10/30 11:36:28;;;;;;;30.13;20.42;;;21.30;92.40;;;;;;5018760;28;20112;-69
2021/10/30 11:38:56;;;;;;;27.23;18.95;;;21.20;92.70;;;;;;5017809;28;20445;-70
2021/10/30 11:41:29;;;;;;;39.47;23.88;;;21.20;93.00;;;;;;5022079;28;20064;-69
2021/10/30 11:43:58;;;;;;;35.45;23.85;;;21.40;93.30;;;;;;5009897;28;20136;-70
2021/10/30 11:46:24;;;;;;;33.15;21.35;;;21.50;93.30;;;;;;5016076;28;20081;-74
2021/10/30 11:48:56;;;;;;;29.50;20.13;;;21.60;93.30;;;;;;5030265;28;20061;-72
2021/10/30 11:51:23;;;;;;;29.85;20.27;;;21.60;93.30;;;;;;5028626;28;20856;-73
2021/10/30 11:53:50;;;;;;;33.83;21.63;;;21.60;93.50;;;;;;5026195;28;20037;-73
2021/10/30 11:56:18;;;;;;;32.92;18.88;;;21.50;94.00;;;;;;5028442;28;20099;-73
2021/10/30 11:58:45;;;;;;;26.55;19.67;;;21.40;93.90;;;;;;5029071;28;20030;-74
2021/10/30 12:01:31;;;;;;;34.75;20.85;;;21.30;94.00;;;;;;5025621;28;20025;-75
2021/10/30 12:04:01;;;;;;;25.70;19.95;;;21.30;94.10;;;;;;5030723;28;20060;-74
2021/10/30 12:06:30;;;;;;;31.25;21.48;;;21.20;94.40;;;;;;5024445;28;20064;-74
2021/10/30 12:08:57;;;;;;;32.40;21.05;;;21.10;94.50;;;;;;5024877;28;20041;-74
2021/10/30 12:11:24;;;;;;;32.97;20.42;;;21.00;94.80;;;;;;5028831;28;20079;-74
2021/10/30 12:13:51;;;;;;;32.15;19.88;;;21.10;94.90;;;;;;5023973;28;20445;-74
2021/10/30 12:16:17;;;;;;;32.45;20.17;;;21.10;94.80;;;;;;5026472;28;20124;-74
2021/10/30 12:18:43;;;;;;;27.00;20.33;;;21.00;94.90;;;;;;5026943;28;20366;-74
2021/10/30 12:21:13;;;;;;;34.50;20.42;;;21.00;95.00;;;;;;5021266;28;20495;-74
2021/10/30 12:23:57;;;;;;;30.02;19.92;;;20.80;95.20;;;;;;5028723;28;20041;-74
2021/10/30 12:26:32;;;;;;;31.30;19.92;;;20.70;95.60;;;;;;5021140;28;20053;-74
2021/10/30 12:29:43;;;;;;;26.85;20.05;;;20.60;95.70;;;;;;5012410;28;20129;-73
2021/10/30 12:32:14;;;;;;;38.20;21.35;;;20.40;96.30;;;;;;4984314;28;20057;-73